Wetterstation Tischlerei-Herzog
Wetterdaten: aktuell Freitag, 19.07.2019 14:47
Datum Zeit Temp. N Temp. S Temp. Htte Aussentemp. Temp. Bo Feuchte Htt Luftfeuchte Luftdruck Niederschl. Taupunkt empf. Temp.
19.07.2019 14:47 22,6 C 21,7 C 21,5 C 21,7 C 18,7 C 30 % 38 % 1010,4 hPa 0,0 l/m 6,8 C 21,7 C
19.07.2019 13:47 19,7 C 18,9 C 19,1 C 18,9 C 18,6 C 43 % 48 % 1010,8 hPa 0,0 l/m 7,6 C 18,9 C
19.07.2019 12:47 19,5 C 19,1 C 19,6 C 19,1 C 18,6 C 42 % 46 % 1011,8 hPa 0,0 l/m 7,2 C 19,1 C
19.07.2019 11:47 21,1 C 21,0 C 20,4 C 21,0 C 18,5 C 36 % 41 % 1010,5 hPa 0,0 l/m 7,2 C 21,0 C
19.07.2019 10:47 18,2 C 20,1 C 20,0 C 18,2 C 18,5 C 40 % 44 % 1010,9 hPa 0,7 l/m 5,7 C 18,2 C
19.07.2019 09:47 21,5 C 20,8 C 20,8 C 20,8 C 18,6 C 31 % 36 % 1010,5 hPa 0,0 l/m 5,2 C 20,8 C
19.07.2019 08:47 20,1 C 19,3 C 19,1 C 19,3 C 18,6 C 37 % 39 % 1010,7 hPa 0,0 l/m 5,0 C 19,3 C
19.07.2019 07:47 17,9 C 18,1 C 17,7 C 17,9 C 18,7 C 45 % 46 % 1009,9 hPa 0,0 l/m 6,1 C 17,9 C
19.07.2019 06:47 17,0 C 17,4 C 17,0 C 17,0 C 18,7 C 45 % 43 % 1010,0 hPa 0,0 l/m 4,3 C 17,0 C
19.07.2019 05:47 16,1 C 16,6 C 16,3 C 16,1 C 18,8 C 47 % 46 % 1010,2 hPa 0,0 l/m 4,5 C 16,1 C
19.07.2019 04:47 16,5 C 17,0 C 16,6 C 16,5 C 18,9 C 42 % 40 % 1009,0 hPa 0,0 l/m 2,9 C 16,5 C
19.07.2019 03:47 16,3 C 17,0 C 16,8 C 16,3 C 19,0 C 42 % 40 % 1009,1 hPa 0,0 l/m 2,7 C 16,3 C
19.07.2019 02:47 16,8 C 17,3 C 17,0 C 16,8 C 19,0 C 39 % 40 % 1009,0 hPa 0,0 l/m 3,1 C 16,8 C
19.07.2019 01:47 17,3 C 17,9 C 17,9 C 17,3 C 19,1 C 35 % 40 % 1008,9 hPa 0,0 l/m 3,6 C 17,3 C
19.07.2019 00:47 18,0 C 18,5 C 18,3 C 18,0 C 19,1 C 29 % 36 % 1008,8 hPa 0,0 l/m 2,7 C 18,0 C
18.07.2019 23:47 18,2 C 18,7 C 18,1 C 18,2 C 19,1 C 25 % 32 % 1008,8 hPa 0,0 l/m 1,2 C 18,2 C
18.07.2019 22:36 18,1 C 18,7 C 18,2 C 18,1 C 19,1 C 24 % 32 % 1008,8 hPa 0,0 l/m 1,2 C 18,1 C
18.07.2019 21:36 19,3 C 19,6 C 19,9 C 19,3 C 19,0 C 24 % 35 % 1008,6 hPa 0,0 l/m 3,5 C 19,3 C
18.07.2019 20:36 22,7 C 23,4 C 23,6 C 22,7 C 18,8 C 20 % 20 % 1007,1 hPa 0,0 l/m -1,4 C 22,7 C
18.07.2019 19:36 24,6 C 24,9 C 25,4 C 24,6 C 18,6 C 20 % 20 % 1006,8 hPa 0,0 l/m 0,2 C 24,6 C
18.07.2019 18:36 26,1 C 26,0 C 26,5 C 26,0 C 18,3 C 20 % 20 % 1006,6 hPa 0,0 l/m 1,3 C 26,0 C
18.07.2019 17:36 25,6 C 26,8 C 26,2 C 25,6 C 18,0 C 20 % 20 % 1006,7 hPa 0,0 l/m 1,0 C 25,6 C
18.07.2019 16:36 27,9 C 27,1 C 26,6 C 27,1 C 17,7 C 20 % 20 % 1006,5 hPa 0,0 l/m 2,2 C 27,1 C
18.07.2019 15:36 26,5 C 28,3 C 27,5 C 26,5 C 17,3 C 20 % 20 % 1006,5 hPa 0,0 l/m 1,7 C 26,5 C
18.07.2019 15:01 27,2 C 28,1 C 27,4 C 27,2 C 17,2 C 20 % 20 % 1006,4 hPa 0,0 l/m 2,3 C 27,2 C
_ Min-Zeit 05:17 06:02 06:07 05:17 15:01 15:01 15:01 17:56 - 20:56 05:17
Minimum _ 15,8 C 16,4 C 16,2 C 15,8 C 17,2 C 20 % 20 % 1006,4 hPa - -2,5 C 15,8 C
_ Max-Zeit 19:06 15:46 15:51 17:56 22:06 05:57 13:27 12:57 10:42 11:57 17:56
Maximum _ 28,7 C 28,8 C 27,9 C 27,5 C 19,1 C 48 % 48 % 1011,8 hPa 0,3 l/m 8,1 C 27,5 C
Durchschnitt _ 20,9 C 21,1 C 21,0 C 20,7 C 18,5 C 31 % 34 % 1008,8 hPa #0,7 l/m 3,4 C 20,7 C
Tischlerei Herzog